sensor_id;sensor_type;location;lat;lon;timestamp;P1;durP1;ratioP1;P2;durP2;ratioP2
51214;SDS011;63849;47.546;19.254;2023-04-01T00:00:57;13.55;;;6.20;;
51214;SDS011;63849;47.546;19.254;2023-04-01T00:03:24;7.45;;;3.65;;
51214;SDS011;63849;47.546;19.254;2023-04-01T00:05:54;3.97;;;2.22;;
51214;SDS011;63849;47.546;19.254;2023-04-01T00:08:21;4.25;;;2.55;;
51214;SDS011;63849;47.546;19.254;2023-04-01T00:10:47;4.78;;;3.30;;
51214;SDS011;63849;47.546;19.254;2023-04-01T00:13:14;5.47;;;3.13;;
51214;SDS011;63849;47.546;19.254;2023-04-01T00:15:40;6.93;;;3.63;;
51214;SDS011;63849;47.546;19.254;2023-04-01T00:18:06;4.30;;;3.50;;
51214;SDS011;63849;47.546;19.254;2023-04-01T00:20:33;6.07;;;3.33;;
51214;SDS011;63849;47.546;19.254;2023-04-01T00:22:59;3.50;;;3.17;;
51214;SDS011;63849;47.546;19.254;2023-04-01T00:25:25;4.13;;;3.72;;
51214;SDS011;63849;47.546;19.254;2023-04-01T00:27:51;6.03;;;4.00;;
51214;SDS011;63849;47.546;19.254;2023-04-01T00:30:17;6.85;;;4.18;;
51214;SDS011;63849;47.546;19.254;2023-04-01T00:32:43;9.10;;;4.95;;
51214;SDS011;63849;47.546;19.254;2023-04-01T00:35:09;9.52;;;5.75;;
51214;SDS011;63849;47.546;19.254;2023-04-01T00:37:36;9.35;;;6.32;;
51214;SDS011;63849;47.546;19.254;2023-04-01T00:40:05;8.52;;;6.15;;
51214;SDS011;63849;47.546;19.254;2023-04-01T00:42:31;8.25;;;5.50;;
51214;SDS011;63849;47.546;19.254;2023-04-01T00:44:57;8.73;;;5.22;;
51214;SDS011;63849;47.546;19.254;2023-04-01T00:47:24;7.25;;;5.00;;
51214;SDS011;63849;47.546;19.254;2023-04-01T00:49:51;9.02;;;6.03;;
51214;SDS011;63849;47.546;19.254;2023-04-01T00:52:23;8.90;;;5.68;;
51214;SDS011;63849;47.546;19.254;2023-04-01T00:54:52;8.40;;;6.20;;
51214;SDS011;63849;47.546;19.254;2023-04-01T00:57:29;8.65;;;6.45;;
51214;SDS011;63849;47.546;19.254;2023-04-01T01:00:00;10.55;;;6.10;;
51214;SDS011;63849;47.546;19.254;2023-04-01T01:02:25;10.82;;;6.72;;
51214;SDS011;63849;47.546;19.254;2023-04-01T01:04:51;10.38;;;6.43;;
51214;SDS011;63849;47.546;19.254;2023-04-01T01:26:46;5.05;;;4.55;;
51214;SDS011;63849;47.546;19.254;2023-04-01T01:38:16;6.43;;;4.40;;
51214;SDS011;63849;47.546;19.254;2023-04-01T01:40:45;5.22;;;4.72;;
51214;SDS011;63849;47.546;19.254;2023-04-01T01:43:17;5.05;;;4.53;;
51214;SDS011;63849;47.546;19.254;2023-04-01T01:45:48;6.53;;;5.18;;
51214;SDS011;63849;47.546;19.254;2023-04-01T01:48:17;7.32;;;5.03;;
51214;SDS011;63849;47.546;19.254;2023-04-01T01:50:45;5.85;;;4.95;;
51214;SDS011;63849;47.546;19.254;2023-04-01T01:53:13;6.65;;;5.43;;
51214;SDS011;63849;47.546;19.254;2023-04-01T01:55:45;7.25;;;6.07;;
51214;SDS011;63849;47.546;19.254;2023-04-01T01:58:47;7.50;;;6.35;;
51214;SDS011;63849;47.546;19.254;2023-04-01T02:01:11;7.78;;;6.45;;
51214;SDS011;63849;47.546;19.254;2023-04-01T02:03:40;11.07;;;7.75;;
51214;SDS011;63849;47.546;19.254;2023-04-01T02:06:09;8.07;;;7.32;;
51214;SDS011;63849;47.546;19.254;2023-04-01T02:11:25;8.45;;;7.38;;
51214;SDS011;63849;47.546;19.254;2023-04-01T02:14:18;9.00;;;7.40;;
51214;SDS011;63849;47.546;19.254;2023-04-01T02:16:57;7.65;;;6.95;;
51214;SDS011;63849;47.546;19.254;2023-04-01T02:19:38;7.45;;;6.85;;
51214;SDS011;63849;47.546;19.254;2023-04-01T02:22:10;8.23;;;7.43;;
51214;SDS011;63849;47.546;19.254;2023-04-01T02:24:39;10.55;;;8.90;;
51214;SDS011;63849;47.546;19.254;2023-04-01T02:27:06;9.73;;;8.82;;
51214;SDS011;63849;47.546;19.254;2023-04-01T02:29:38;10.50;;;9.25;;
51214;SDS011;63849;47.546;19.254;2023-04-01T02:32:04;10.63;;;9.55;;
51214;SDS011;63849;47.546;19.254;2023-04-01T02:34:32;9.02;;;8.23;;
51214;SDS011;63849;47.546;19.254;2023-04-01T02:36:58;10.85;;;9.75;;
51214;SDS011;63849;47.546;19.254;2023-04-01T02:39:24;10.15;;;9.25;;
51214;SDS011;63849;47.546;19.254;2023-04-01T02:41:53;10.88;;;9.70;;
51214;SDS011;63849;47.546;19.254;2023-04-01T02:44:19;10.52;;;9.40;;
51214;SDS011;63849;47.546;19.254;2023-04-01T02:46:45;11.48;;;9.82;;
51214;SDS011;63849;47.546;19.254;2023-04-01T02:49:11;10.63;;;9.45;;
51214;SDS011;63849;47.546;19.254;2023-04-01T02:51:36;10.57;;;9.48;;
51214;SDS011;63849;47.546;19.254;2023-04-01T02:54:04;10.35;;;9.23;;
51214;SDS011;63849;47.546;19.254;2023-04-01T02:56:32;11.43;;;9.63;;
51214;SDS011;63849;47.546;19.254;2023-04-01T02:58:58;10.45;;;9.38;;
51214;SDS011;63849;47.546;19.254;2023-04-01T03:01:24;11.27;;;9.27;;
51214;SDS011;63849;47.546;19.254;2023-04-01T03:03:50;8.85;;;8.05;;
51214;SDS011;63849;47.546;19.254;2023-04-01T03:06:16;9.57;;;8.68;;
51214;SDS011;63849;47.546;19.254;2023-04-01T03:08:42;11.70;;;8.40;;
51214;SDS011;63849;47.546;19.254;2023-04-01T03:11:09;9.77;;;7.82;;
51214;SDS011;63849;47.546;19.254;2023-04-01T03:13:35;10.77;;;8.73;;
51214;SDS011;63849;47.546;19.254;2023-04-01T03:16:02;10.02;;;9.13;;
51214;SDS011;63849;47.546;19.254;2023-04-01T03:18:28;9.70;;;8.70;;
51214;SDS011;63849;47.546;19.254;2023-04-01T03:20:54;9.52;;;8.45;;
51214;SDS011;63849;47.546;19.254;2023-04-01T03:23:19;10.43;;;8.40;;
51214;SDS011;63849;47.546;19.254;2023-04-01T03:25:46;9.05;;;7.45;;
51214;SDS011;63849;47.546;19.254;2023-04-01T03:28:13;9.40;;;7.85;;
51214;SDS011;63849;47.546;19.254;2023-04-01T03:30:39;9.07;;;7.75;;
51214;SDS011;63849;47.546;19.254;2023-04-01T03:33:05;9.48;;;7.80;;
51214;SDS011;63849;47.546;19.254;2023-04-01T03:35:31;8.95;;;7.70;;
51214;SDS011;63849;47.546;19.254;2023-04-01T03:37:57;7.65;;;6.88;;
51214;SDS011;63849;47.546;19.254;2023-04-01T03:40:23;12.15;;;6.82;;
51214;SDS011;63849;47.546;19.254;2023-04-01T03:42:51;7.90;;;6.30;;
51214;SDS011;63849;47.546;19.254;2023-04-01T03:45:17;7.07;;;5.95;;
51214;SDS011;63849;47.546;19.254;2023-04-01T03:47:43;6.15;;;5.10;;
51214;SDS011;63849;47.546;19.254;2023-04-01T03:50:09;8.10;;;5.60;;
51214;SDS011;63849;47.546;19.254;2023-04-01T03:52:36;5.82;;;4.60;;
51214;SDS011;63849;47.546;19.254;2023-04-01T03:55:02;7.28;;;4.72;;
51214;SDS011;63849;47.546;19.254;2023-04-01T03:57:27;12.13;;;7.75;;
51214;SDS011;63849;47.546;19.254;2023-04-01T03:59:56;14.23;;;8.15;;
51214;SDS011;63849;47.546;19.254;2023-04-01T04:02:23;12.65;;;7.80;;
51214;SDS011;63849;47.546;19.254;2023-04-01T04:04:49;9.85;;;6.55;;
51214;SDS011;63849;47.546;19.254;2023-04-01T04:07:14;9.50;;;7.13;;
51214;SDS011;63849;47.546;19.254;2023-04-01T04:09:42;11.35;;;7.28;;
51214;SDS011;63849;47.546;19.254;2023-04-01T04:12:08;8.70;;;7.05;;
51214;SDS011;63849;47.546;19.254;2023-04-01T04:14:33;8.20;;;6.28;;
51214;SDS011;63849;47.546;19.254;2023-04-01T04:16:59;7.70;;;6.32;;
51214;SDS011;63849;47.546;19.254;2023-04-01T04:19:25;9.40;;;5.88;;
51214;SDS011;63849;47.546;19.254;2023-04-01T04:21:51;6.72;;;5.45;;
51214;SDS011;63849;47.546;19.254;2023-04-01T04:24:17;7.90;;;5.68;;
51214;SDS011;63849;47.546;19.254;2023-04-01T04:26:42;6.72;;;4.47;;
51214;SDS011;63849;47.546;19.254;2023-04-01T04:29:08;6.90;;;4.00;;
51214;SDS011;63849;47.546;19.254;2023-04-01T04:31:34;4.32;;;3.08;;
51214;SDS011;63849;47.546;19.254;2023-04-01T04:34:00;7.07;;;3.60;;
51214;SDS011;63849;47.546;19.254;2023-04-01T04:36:27;4.80;;;3.75;;
51214;SDS011;63849;47.546;19.254;2023-04-01T04:38:53;7.80;;;4.13;;
51214;SDS011;63849;47.546;19.254;2023-04-01T04:41:19;6.55;;;4.22;;
51214;SDS011;63849;47.546;19.254;2023-04-01T04:43:50;5.07;;;4.30;;
51214;SDS011;63849;47.546;19.254;2023-04-01T04:46:20;6.55;;;5.38;;
51214;SDS011;63849;47.546;19.254;2023-04-01T04:48:47;6.95;;;6.05;;
51214;SDS011;63849;47.546;19.254;2023-04-01T04:51:15;10.15;;;8.02;;
51214;SDS011;63849;47.546;19.254;2023-04-01T04:53:42;10.68;;;9.05;;
51214;SDS011;63849;47.546;19.254;2023-04-01T04:56:08;11.68;;;9.77;;
51214;SDS011;63849;47.546;19.254;2023-04-01T04:58:33;10.93;;;9.82;;
51214;SDS011;63849;47.546;19.254;2023-04-01T05:01:05;11.57;;;10.20;;
51214;SDS011;63849;47.546;19.254;2023-04-01T05:03:35;9.95;;;8.85;;
51214;SDS011;63849;47.546;19.254;2023-04-01T05:06:01;10.25;;;8.70;;
51214;SDS011;63849;47.546;19.254;2023-04-01T05:08:27;11.65;;;8.88;;
51214;SDS011;63849;47.546;19.254;2023-04-01T05:10:53;12.25;;;10.57;;
51214;SDS011;63849;47.546;19.254;2023-04-01T05:13:20;14.68;;;11.10;;
51214;SDS011;63849;47.546;19.254;2023-04-01T05:15:45;13.70;;;12.13;;
51214;SDS011;63849;47.546;19.254;2023-04-01T05:18:11;16.25;;;14.63;;
51214;SDS011;63849;47.546;19.254;2023-04-01T05:20:38;39.80;;;35.55;;
51214;SDS011;63849;47.546;19.254;2023-04-01T05:23:03;43.13;;;39.22;;
51214;SDS011;63849;47.546;19.254;2023-04-01T05:25:32;42.55;;;38.47;;
51214;SDS011;63849;47.546;19.254;2023-04-01T05:28:02;39.75;;;36.10;;
51214;SDS011;63849;47.546;19.254;2023-04-01T05:30:28;33.05;;;30.05;;
51214;SDS011;63849;47.546;19.254;2023-04-01T05:32:54;32.42;;;29.52;;
51214;SDS011;63849;47.546;19.254;2023-04-01T05:35:21;32.22;;;29.33;;
51214;SDS011;63849;47.546;19.254;2023-04-01T05:37:58;32.65;;;29.42;;
51214;SDS011;63849;47.546;19.254;2023-04-01T05:40:24;29.58;;;26.98;;
51214;SDS011;63849;47.546;19.254;2023-04-01T05:42:50;21.40;;;19.50;;
51214;SDS011;63849;47.546;19.254;2023-04-01T05:45:16;17.52;;;15.77;;
51214;SDS011;63849;47.546;19.254;2023-04-01T05:47:41;10.70;;;9.45;;
51214;SDS011;63849;47.546;19.254;2023-04-01T05:50:08;8.32;;;7.53;;
51214;SDS011;63849;47.546;19.254;2023-04-01T05:52:36;8.00;;;5.22;;
51214;SDS011;63849;47.546;19.254;2023-04-01T05:55:03;7.82;;;5.65;;
51214;SDS011;63849;47.546;19.254;2023-04-01T05:57:30;5.07;;;3.63;;
51214;SDS011;63849;47.546;19.254;2023-04-01T05:59:55;3.92;;;3.00;;
51214;SDS011;63849;47.546;19.254;2023-04-01T06:02:21;4.60;;;2.47;;
51214;SDS011;63849;47.546;19.254;2023-04-01T06:04:47;5.30;;;3.30;;
51214;SDS011;63849;47.546;19.254;2023-04-01T06:07:15;9.43;;;5.70;;
51214;SDS011;63849;47.546;19.254;2023-04-01T06:09:43;11.00;;;7.35;;
51214;SDS011;63849;47.546;19.254;2023-04-01T06:12:15;9.35;;;5.53;;
51214;SDS011;63849;47.546;19.254;2023-04-01T06:15:03;4.30;;;2.70;;
51214;SDS011;63849;47.546;19.254;2023-04-01T06:29:19;4.95;;;2.55;;
51214;SDS011;63849;47.546;19.254;2023-04-01T06:39:55;5.57;;;3.90;;
51214;SDS011;63849;47.546;19.254;2023-04-01T06:45:51;7.53;;;3.58;;
51214;SDS011;63849;47.546;19.254;2023-04-01T06:48:29;3.70;;;2.70;;
51214;SDS011;63849;47.546;19.254;2023-04-01T06:51:16;5.55;;;2.35;;
51214;SDS011;63849;47.546;19.254;2023-04-01T06:53:56;3.00;;;1.85;;
51214;SDS011;63849;47.546;19.254;2023-04-01T06:56:40;4.13;;;1.58;;
51214;SDS011;63849;47.546;19.254;2023-04-01T06:59:17;4.75;;;2.40;;
51214;SDS011;63849;47.546;19.254;2023-04-01T07:01:48;6.13;;;2.88;;
51214;SDS011;63849;47.546;19.254;2023-04-01T07:04:20;4.47;;;2.53;;
51214;SDS011;63849;47.546;19.254;2023-04-01T07:06:57;4.70;;;1.88;;
51214;SDS011;63849;47.546;19.254;2023-04-01T07:09:35;2.03;;;0.98;;
51214;SDS011;63849;47.546;19.254;2023-04-01T07:14:55;1.10;;;0.90;;
51214;SDS011;63849;47.546;19.254;2023-04-01T07:17:27;2.33;;;1.08;;
51214;SDS011;63849;47.546;19.254;2023-04-01T07:20:02;2.55;;;1.08;;
51214;SDS011;63849;47.546;19.254;2023-04-01T07:23:02;4.38;;;1.08;;
51214;SDS011;63849;47.546;19.254;2023-04-01T07:25:35;3.63;;;0.95;;
51214;SDS011;63849;47.546;19.254;2023-04-01T07:28:05;1.75;;;1.05;;
51214;SDS011;63849;47.546;19.254;2023-04-01T07:31:02;2.03;;;0.95;;
51214;SDS011;63849;47.546;19.254;2023-04-01T07:42:02;3.35;;;1.50;;
51214;SDS011;63849;47.546;19.254;2023-04-01T07:47:34;7.90;;;3.67;;
51214;SDS011;63849;47.546;19.254;2023-04-01T08:05:59;1.58;;;1.00;;
51214;SDS011;63849;47.546;19.254;2023-04-01T08:11:32;2.25;;;1.17;;
51214;SDS011;63849;47.546;19.254;2023-04-01T08:16:51;3.42;;;1.17;;
51214;SDS011;63849;47.546;19.254;2023-04-01T08:25:06;1.35;;;0.90;;
51214;SDS011;63849;47.546;19.254;2023-04-01T08:27:41;2.45;;;1.20;;
51214;SDS011;63849;47.546;19.254;2023-04-01T08:30:23;2.70;;;1.00;;
51214;SDS011;63849;47.546;19.254;2023-04-01T08:33:18;2.13;;;1.17;;
51214;SDS011;63849;47.546;19.254;2023-04-01T08:52:36;1.48;;;0.80;;
51214;SDS011;63849;47.546;19.254;2023-04-01T08:55:21;1.58;;;0.70;;
51214;SDS011;63849;47.546;19.254;2023-04-01T09:01:09;5.05;;;2.30;;
51214;SDS011;63849;47.546;19.254;2023-04-01T09:06:37;2.47;;;1.45;;
51214;SDS011;63849;47.546;19.254;2023-04-01T09:51:36;3.25;;;1.48;;
51214;SDS011;63849;47.546;19.254;2023-04-01T09:54:13;3.50;;;1.15;;
51214;SDS011;63849;47.546;19.254;2023-04-01T09:59:47;3.38;;;1.08;;
51214;SDS011;63849;47.546;19.254;2023-04-01T10:02:33;2.35;;;1.25;;
51214;SDS011;63849;47.546;19.254;2023-04-01T10:16:53;5.78;;;1.92;;
51214;SDS011;63849;47.546;19.254;2023-04-01T10:22:21;3.75;;;1.30;;
51214;SDS011;63849;47.546;19.254;2023-04-01T10:33:19;4.80;;;1.73;;
51214;SDS011;63849;47.546;19.254;2023-04-01T10:36:08;2.17;;;1.10;;
51214;SDS011;63849;47.546;19.254;2023-04-01T10:50:42;2.35;;;1.30;;
51214;SDS011;63849;47.546;19.254;2023-04-01T10:53:28;3.70;;;1.70;;
51214;SDS011;63849;47.546;19.254;2023-04-01T11:06:37;3.58;;;1.33;;
51214;SDS011;63849;47.546;19.254;2023-04-01T11:09:25;4.88;;;1.52;;
51214;SDS011;63849;47.546;19.254;2023-04-01T11:23:37;3.83;;;1.30;;
51214;SDS011;63849;47.546;19.254;2023-04-01T11:26:29;2.28;;;1.15;;
51214;SDS011;63849;47.546;19.254;2023-04-01T12:01:28;5.65;;;1.40;;
51214;SDS011;63849;47.546;19.254;2023-04-01T12:06:45;3.00;;;1.40;;
51214;SDS011;63849;47.546;19.254;2023-04-01T12:09:52;3.20;;;1.20;;
51214;SDS011;63849;47.546;19.254;2023-04-01T12:15:29;2.47;;;1.55;;
51214;SDS011;63849;47.546;19.254;2023-04-01T12:32:17;3.70;;;1.38;;
51214;SDS011;63849;47.546;19.254;2023-04-01T12:52:13;3.45;;;1.67;;
51214;SDS011;63849;47.546;19.254;2023-04-01T13:04:18;2.80;;;1.20;;
51214;SDS011;63849;47.546;19.254;2023-04-01T13:13:18;5.03;;;1.70;;
51214;SDS011;63849;47.546;19.254;2023-04-01T13:18:28;3.78;;;2.03;;
51214;SDS011;63849;47.546;19.254;2023-04-01T13:21:19;2.85;;;1.48;;
51214;SDS011;63849;47.546;19.254;2023-04-01T13:24:13;2.55;;;0.88;;
51214;SDS011;63849;47.546;19.254;2023-04-01T13:29:31;7.38;;;0.90;;
51214;SDS011;63849;47.546;19.254;2023-04-01T13:42:44;3.03;;;0.70;;
51214;SDS011;63849;47.546;19.254;2023-04-01T13:45:15;2.15;;;0.55;;
51214;SDS011;63849;47.546;19.254;2023-04-01T13:47:55;2.58;;;0.75;;
51214;SDS011;63849;47.546;19.254;2023-04-01T13:54:28;1.85;;;0.80;;
51214;SDS011;63849;47.546;19.254;2023-04-01T14:02:14;2.72;;;0.77;;
51214;SDS011;63849;47.546;19.254;2023-04-01T14:05:09;2.97;;;1.02;;
51214;SDS011;63849;47.546;19.254;2023-04-01T14:14:06;2.53;;;0.80;;
51214;SDS011;63849;47.546;19.254;2023-04-01T14:19:34;1.23;;;0.70;;
51214;SDS011;63849;47.546;19.254;2023-04-01T14:25:22;1.08;;;0.68;;
51214;SDS011;63849;47.546;19.254;2023-04-01T14:34:19;2.13;;;0.90;;
51214;SDS011;63849;47.546;19.254;2023-04-01T14:39:47;4.57;;;1.00;;
51214;SDS011;63849;47.546;19.254;2023-04-01T14:50:24;3.78;;;1.42;;
51214;SDS011;63849;47.546;19.254;2023-04-01T14:58:14;3.58;;;1.70;;
51214;SDS011;63849;47.546;19.254;2023-04-01T15:03:16;3.25;;;1.67;;
51214;SDS011;63849;47.546;19.254;2023-04-01T15:14:39;5.05;;;1.58;;
51214;SDS011;63849;47.546;19.254;2023-04-01T15:17:43;5.82;;;2.70;;
51214;SDS011;63849;47.546;19.254;2023-04-01T15:33:36;2.42;;;1.15;;
51214;SDS011;63849;47.546;19.254;2023-04-01T15:36:33;1.40;;;0.70;;
51214;SDS011;63849;47.546;19.254;2023-04-01T15:39:24;1.60;;;1.05;;
51214;SDS011;63849;47.546;19.254;2023-04-01T15:42:19;4.32;;;1.13;;
51214;SDS011;63849;47.546;19.254;2023-04-01T15:45:02;0.73;;;0.60;;
51214;SDS011;63849;47.546;19.254;2023-04-01T16:02:31;7.53;;;4.63;;
51214;SDS011;63849;47.546;19.254;2023-04-01T16:08:41;2.45;;;1.85;;
51214;SDS011;63849;47.546;19.254;2023-04-01T16:10:58;2.58;;;1.33;;
51214;SDS011;63849;47.546;19.254;2023-04-01T16:14:17;4.40;;;2.10;;
51214;SDS011;63849;47.546;19.254;2023-04-01T16:24:51;3.97;;;1.77;;
51214;SDS011;63849;47.546;19.254;2023-04-01T16:30:43;6.78;;;3.38;;
51214;SDS011;63849;47.546;19.254;2023-04-01T16:33:22;20.17;;;12.07;;
51214;SDS011;63849;47.546;19.254;2023-04-01T16:35:55;14.40;;;8.27;;
51214;SDS011;63849;47.546;19.254;2023-04-01T16:41:00;8.38;;;4.95;;
51214;SDS011;63849;47.546;19.254;2023-04-01T16:46:53;3.80;;;1.77;;
51214;SDS011;63849;47.546;19.254;2023-04-01T16:49:42;2.17;;;1.85;;
51214;SDS011;63849;47.546;19.254;2023-04-01T16:52:29;4.57;;;2.78;;
51214;SDS011;63849;47.546;19.254;2023-04-01T16:55:01;6.28;;;2.80;;
51214;SDS011;63849;47.546;19.254;2023-04-01T17:02:55;6.78;;;3.53;;
51214;SDS011;63849;47.546;19.254;2023-04-01T17:13:43;10.48;;;5.05;;
51214;SDS011;63849;47.546;19.254;2023-04-01T17:25:08;4.95;;;3.50;;
51214;SDS011;63849;47.546;19.254;2023-04-01T17:38:43;6.30;;;4.22;;
51214;SDS011;63849;47.546;19.254;2023-04-01T17:41:36;5.97;;;3.25;;
51214;SDS011;63849;47.546;19.254;2023-04-01T18:00:53;3.30;;;2.75;;
51214;SDS011;63849;47.546;19.254;2023-04-01T18:27:06;8.40;;;5.97;;
51214;SDS011;63849;47.546;19.254;2023-04-01T18:29:54;8.88;;;6.45;;
51214;SDS011;63849;47.546;19.254;2023-04-01T18:38:13;6.68;;;4.65;;
51214;SDS011;63849;47.546;19.254;2023-04-01T18:52:26;6.88;;;3.88;;
51214;SDS011;63849;47.546;19.254;2023-04-01T18:58:12;6.30;;;4.30;;
51214;SDS011;63849;47.546;19.254;2023-04-01T19:03:41;6.43;;;3.67;;
51214;SDS011;63849;47.546;19.254;2023-04-01T19:06:33;7.97;;;4.80;;
51214;SDS011;63849;47.546;19.254;2023-04-01T19:09:21;8.30;;;3.60;;
51214;SDS011;63849;47.546;19.254;2023-04-01T19:17:16;2.55;;;2.08;;
51214;SDS011;63849;47.546;19.254;2023-04-01T19:28:00;3.72;;;2.80;;
51214;SDS011;63849;47.546;19.254;2023-04-01T19:44:47;14.50;;;8.45;;
51214;SDS011;63849;47.546;19.254;2023-04-01T19:47:39;14.85;;;8.43;;
51214;SDS011;63849;47.546;19.254;2023-04-01T19:50:23;18.00;;;9.05;;
51214;SDS011;63849;47.546;19.254;2023-04-01T19:53:03;18.13;;;10.30;;
51214;SDS011;63849;47.546;19.254;2023-04-01T20:01:33;18.33;;;11.23;;
51214;SDS011;63849;47.546;19.254;2023-04-01T20:04:14;16.38;;;10.35;;
51214;SDS011;63849;47.546;19.254;2023-04-01T20:06:58;13.63;;;8.88;;
51214;SDS011;63849;47.546;19.254;2023-04-01T20:15:37;13.27;;;8.60;;
51214;SDS011;63849;47.546;19.254;2023-04-01T20:18:13;20.10;;;12.13;;
51214;SDS011;63849;47.546;19.254;2023-04-01T20:20:59;18.42;;;11.05;;
51214;SDS011;63849;47.546;19.254;2023-04-01T20:26:24;13.85;;;9.80;;
51214;SDS011;63849;47.546;19.254;2023-04-01T20:31:43;15.52;;;9.95;;
51214;SDS011;63849;47.546;19.254;2023-04-01T20:42:55;12.60;;;8.63;;
51214;SDS011;63849;47.546;19.254;2023-04-01T20:48:47;12.98;;;8.35;;
51214;SDS011;63849;47.546;19.254;2023-04-01T20:51:25;14.73;;;10.15;;
51214;SDS011;63849;47.546;19.254;2023-04-01T21:02:36;29.70;;;18.63;;
51214;SDS011;63849;47.546;19.254;2023-04-01T21:08:15;25.23;;;15.18;;
51214;SDS011;63849;47.546;19.254;2023-04-01T21:21:46;22.80;;;14.38;;
51214;SDS011;63849;47.546;19.254;2023-04-01T21:24:37;22.75;;;14.32;;
51214;SDS011;63849;47.546;19.254;2023-04-01T21:49:01;10.63;;;7.72;;
51214;SDS011;63849;47.546;19.254;2023-04-01T21:55:13;9.75;;;6.55;;
51214;SDS011;63849;47.546;19.254;2023-04-01T22:00:21;6.50;;;4.72;;
51214;SDS011;63849;47.546;19.254;2023-04-01T22:10:56;5.57;;;4.75;;
51214;SDS011;63849;47.546;19.254;2023-04-01T22:13:33;5.13;;;3.70;;
51214;SDS011;63849;47.546;19.254;2023-04-01T22:16:14;6.03;;;3.70;;
51214;SDS011;63849;47.546;19.254;2023-04-01T22:30:24;5.53;;;3.60;;
51214;SDS011;63849;47.546;19.254;2023-04-01T22:40:26;4.43;;;3.03;;
51214;SDS011;63849;47.546;19.254;2023-04-01T22:43:03;4.45;;;2.97;;
51214;SDS011;63849;47.546;19.254;2023-04-01T22:49:00;4.70;;;2.75;;
51214;SDS011;63849;47.546;19.254;2023-04-01T22:51:45;3.45;;;2.70;;
51214;SDS011;63849;47.546;19.254;2023-04-01T22:56:50;3.95;;;2.75;;
51214;SDS011;63849;47.546;19.254;2023-04-01T22:59:28;7.45;;;3.28;;
51214;SDS011;63849;47.546;19.254;2023-04-01T23:02:12;3.42;;;2.90;;
51214;SDS011;63849;47.546;19.254;2023-04-01T23:04:48;4.07;;;3.08;;
51214;SDS011;63849;47.546;19.254;2023-04-01T23:13:04;5.63;;;3.63;;
51214;SDS011;63849;47.546;19.254;2023-04-01T23:15:37;6.78;;;3.70;;
51214;SDS011;63849;47.546;19.254;2023-04-01T23:20:54;5.00;;;3.20;;
51214;SDS011;63849;47.546;19.254;2023-04-01T23:23:42;4.00;;;3.42;;
51214;SDS011;63849;47.546;19.254;2023-04-01T23:29:04;3.60;;;2.95;;
51214;SDS011;63849;47.546;19.254;2023-04-01T23:31:44;3.17;;;2.67;;
51214;SDS011;63849;47.546;19.254;2023-04-01T23:36:38;3.60;;;3.03;;
51214;SDS011;63849;47.546;19.254;2023-04-01T23:39:10;4.22;;;3.30;;
51214;SDS011;63849;47.546;19.254;2023-04-01T23:41:46;4.03;;;3.05;;
51214;SDS011;63849;47.546;19.254;2023-04-01T23:44:12;3.80;;;3.17;;
51214;SDS011;63849;47.546;19.254;2023-04-01T23:46:39;3.42;;;3.00;;
51214;SDS011;63849;47.546;19.254;2023-04-01T23:49:16;6.85;;;4.90;;
51214;SDS011;63849;47.546;19.254;2023-04-01T23:51:49;9.00;;;6.38;;
51214;SDS011;63849;47.546;19.254;2023-04-01T23:54:24;8.52;;;5.18;;
51214;SDS011;63849;47.546;19.254;2023-04-01T23:56:55;4.18;;;3.00;;
51214;SDS011;63849;47.546;19.254;2023-04-01T23:59:32;4.97;;;2.35;;
